Time;durP1;ratioP1;P1;durP2;ratioP2;P2;SDS_P1;SDS_P2;PMS_P1;PMS_P2;Temp;Humidity;BMP_temperature;BMP_pressure;BME280_temperature;BME280_humidity;BME280_pressure;Samples;Min_cycle;Max_cycle;Signal;HPM_P1;HPM_P2
2023/01/27 00:00:23;;;;;;;32.10;12.07;;;1.80;99.90;;;;;;15202593;23;20025;-36
2023/01/27 00:06:25;;;;;;;34.92;12.55;;;1.80;99.90;;;;;;15194931;23;20355;-36
2023/01/27 00:18:47;;;;;;;32.50;12.68;;;1.90;99.90;;;;;;15199701;23;20029;-36
2023/01/27 00:24:49;;;;;;;33.53;11.23;;;1.90;99.90;;;;;;15198688;23;20026;-36
2023/01/27 00:30:52;;;;;;;33.33;12.80;;;2.00;99.90;;;;;;15200468;23;20413;-37
2023/01/27 00:36:53;;;;;;;31.05;12.27;;;2.00;99.90;;;;;;15175417;23;20026;-36
2023/01/27 00:42:55;;;;;;;32.53;12.73;;;2.00;99.90;;;;;;15195738;23;20018;-36
2023/01/27 00:48:57;;;;;;;32.85;13.32;;;2.00;99.90;;;;;;15198127;23;20029;-36
2023/01/27 00:54:59;;;;;;;28.45;11.93;;;2.00;99.90;;;;;;15198866;23;20403;-36
2023/01/27 01:01:04;;;;;;;31.02;12.38;;;2.00;99.90;;;;;;15200712;23;20026;-36
2023/01/27 01:07:06;;;;;;;29.95;12.23;;;2.10;99.90;;;;;;15199805;23;20077;-36
2023/01/27 01:13:10;;;;;;;36.53;12.63;;;2.10;99.90;;;;;;15200447;23;20125;-36
2023/01/27 01:19:12;;;;;;;36.08;12.90;;;2.20;99.90;;;;;;15198673;23;20077;-36
2023/01/27 01:25:14;;;;;;;30.75;12.55;;;2.10;99.90;;;;;;15169010;23;20061;-35
2023/01/27 01:31:18;;;;;;;34.20;11.98;;;2.10;99.90;;;;;;15172133;23;20028;-36
2023/01/27 01:37:20;;;;;;;29.60;13.27;;;2.20;99.90;;;;;;15200159;23;20021;-36
2023/01/27 01:43:22;;;;;;;25.52;11.57;;;2.20;99.90;;;;;;15194476;23;20022;-35
2023/01/27 01:49:37;;;;;;;28.02;11.25;;;2.30;99.90;;;;;;15201620;23;20518;-36
2023/01/27 01:55:40;;;;;;;31.98;11.65;;;2.20;99.90;;;;;;15202148;23;20037;-36
2023/01/27 02:01:42;;;;;;;26.23;10.90;;;2.20;99.90;;;;;;15201873;23;20520;-36
2023/01/27 02:07:59;;;;;;;25.95;11.60;;;2.30;99.90;;;;;;15199885;23;20089;-36
2023/01/27 02:14:02;;;;;;;26.95;11.52;;;2.40;99.90;;;;;;15199405;23;20542;-36
2023/01/27 02:20:34;;;;;;;25.25;10.93;;;2.40;99.90;;;;;;15205333;23;20018;-36
2023/01/27 02:26:42;;;;;;;26.75;11.50;;;2.30;99.90;;;;;;15139227;23;20026;-36
2023/01/27 02:32:44;;;;;;;29.67;12.00;;;2.40;99.90;;;;;;15201421;23;20029;-36
2023/01/27 02:38:51;;;;;;;28.27;12.52;;;2.30;99.90;;;;;;15202294;23;20355;-35
2023/01/27 02:44:53;;;;;;;31.70;12.07;;;2.40;99.90;;;;;;15200123;23;20029;-36
2023/01/27 02:50:55;;;;;;;27.45;11.60;;;2.30;99.90;;;;;;15202876;23;20032;-36
2023/01/27 02:56:57;;;;;;;29.80;12.57;;;2.30;99.90;;;;;;15177039;23;20026;-36
2023/01/27 03:02:58;;;;;;;30.30;12.15;;;2.30;99.90;;;;;;15200354;23;20097;-36
2023/01/27 03:09:00;;;;;;;26.92;11.63;;;2.30;99.90;;;;;;15198610;23;20101;-36
2023/01/27 03:21:23;;;;;;;21.85;11.32;;;2.40;99.90;;;;;;15198343;23;20076;-36
2023/01/27 03:27:25;;;;;;;24.88;11.13;;;2.40;99.90;;;;;;15194086;23;20507;-36
2023/01/27 03:33:28;;;;;;;21.75;10.93;;;2.40;99.90;;;;;;15173967;23;20085;-36
2023/01/27 03:52:11;;;;;;;23.38;11.07;;;2.50;99.90;;;;;;15195632;23;20037;-36
2023/01/27 03:58:30;;;;;;;25.08;10.70;;;2.40;99.90;;;;;;15195812;23;20463;-36
2023/01/27 04:17:16;;;;;;;24.42;11.82;;;2.50;99.90;;;;;;15144669;23;20033;-36
2023/01/27 04:23:18;;;;;;;26.23;12.47;;;2.50;99.90;;;;;;15175273;23;20026;-36
2023/01/27 04:29:28;;;;;;;26.77;11.80;;;2.40;99.90;;;;;;15200800;23;20036;-36
2023/01/27 04:35:30;;;;;;;18.15;9.77;;;2.50;99.90;;;;;;15202189;23;20109;-36
2023/01/27 04:41:39;;;;;;;17.55;8.80;;;2.60;99.90;;;;;;15174923;23;20021;-36
2023/01/27 04:47:41;;;;;;;13.73;7.90;;;2.60;99.90;;;;;;15200030;23;20025;-36
2023/01/27 04:53:43;;;;;;;11.93;6.47;;;2.70;99.90;;;;;;15198507;23;20027;-37
2023/01/27 04:59:45;;;;;;;12.98;6.60;;;2.70;99.90;;;;;;15175163;23;20487;-36
2023/01/27 05:05:47;;;;;;;11.13;6.10;;;2.70;99.90;;;;;;15194651;23;20467;-36
2023/01/27 05:11:49;;;;;;;8.88;5.82;;;2.60;99.90;;;;;;15200694;23;20032;-35
2023/01/27 05:17:51;;;;;;;7.55;4.80;;;2.70;99.90;;;;;;15193972;23;20022;-36
2023/01/27 05:23:53;;;;;;;11.65;5.35;;;2.70;99.90;;;;;;15203728;23;20029;-36
2023/01/27 05:29:55;;;;;;;9.68;5.32;;;2.60;99.90;;;;;;15204086;23;20022;-37
2023/01/27 05:36:00;;;;;;;15.90;7.18;;;2.70;99.90;;;;;;15203441;23;20487;-36
2023/01/27 05:42:01;;;;;;;12.27;6.33;;;2.70;99.90;;;;;;15204252;23;20093;-35
2023/01/27 05:48:03;;;;;;;11.73;6.45;;;2.70;99.90;;;;;;15200817;23;20125;-35
2023/01/27 05:54:06;;;;;;;14.35;7.78;;;2.80;99.90;;;;;;15201684;23;20030;-35
2023/01/27 06:00:09;;;;;;;17.17;8.18;;;2.70;99.90;;;;;;15204783;23;20339;-36
2023/01/27 06:06:12;;;;;;;15.60;7.88;;;2.80;99.90;;;;;;15198044;23;20414;-37
2023/01/27 06:12:14;;;;;;;15.52;7.13;;;2.90;99.90;;;;;;15202947;23;20101;-37
2023/01/27 06:18:17;;;;;;;12.25;6.90;;;2.90;99.90;;;;;;15197712;23;20022;-38
2023/01/27 06:24:19;;;;;;;12.35;6.43;;;2.90;99.90;;;;;;15176516;23;20081;-37
2023/01/27 06:30:21;;;;;;;11.25;6.25;;;2.90;99.90;;;;;;15205284;23;20073;-37
2023/01/27 06:36:23;;;;;;;12.20;5.72;;;2.90;99.90;;;;;;15199983;23;20100;-36
2023/01/27 06:42:25;;;;;;;12.73;5.53;;;2.80;99.90;;;;;;15199099;23;20377;-37
2023/01/27 06:48:27;;;;;;;10.68;5.15;;;2.80;99.90;;;;;;15202415;23;20479;-37
2023/01/27 06:54:29;;;;;;;11.15;5.85;;;2.90;99.90;;;;;;15198445;23;20028;-37
2023/01/27 07:00:31;;;;;;;12.07;5.32;;;2.80;99.90;;;;;;15172031;23;20058;-37
2023/01/27 07:06:33;;;;;;;12.38;6.00;;;2.80;99.90;;;;;;15201761;23;20467;-37
2023/01/27 07:12:36;;;;;;;12.13;5.93;;;2.90;99.90;;;;;;15197344;23;20081;-37
2023/01/27 07:18:38;;;;;;;12.27;5.60;;;2.90;99.90;;;;;;15198686;23;20022;-37
2023/01/27 07:24:40;;;;;;;13.57;6.05;;;2.80;99.90;;;;;;15201804;23;20392;-36
2023/01/27 07:30:42;;;;;;;15.15;7.10;;;2.90;99.90;;;;;;15201059;23;20108;-36
2023/01/27 07:36:44;;;;;;;12.80;5.97;;;2.80;99.90;;;;;;15204837;23;20462;-36
2023/01/27 07:42:46;;;;;;;12.82;6.30;;;2.90;99.90;;;;;;15200412;23;20018;-37
2023/01/27 07:48:48;;;;;;;10.13;5.55;;;2.90;99.90;;;;;;15202198;23;20037;-37
2023/01/27 07:54:50;;;;;;;9.43;5.40;;;3.00;99.90;;;;;;15199923;23;20526;-37
2023/01/27 08:00:52;;;;;;;8.30;4.78;;;2.90;99.90;;;;;;15200366;23;20065;-36
2023/01/27 08:06:54;;;;;;;8.88;5.13;;;2.90;99.90;;;;;;15199807;23;20073;-36
2023/01/27 08:12:56;;;;;;;11.68;5.50;;;2.90;99.90;;;;;;15197489;23;20029;-37
2023/01/27 08:18:57;;;;;;;11.55;6.32;;;3.00;99.90;;;;;;15198458;23;20029;-36
2023/01/27 08:24:59;;;;;;;11.55;6.03;;;3.00;99.90;;;;;;15199388;23;20057;-37
2023/01/27 08:31:08;;;;;;;9.05;5.07;;;3.00;99.90;;;;;;15167289;23;20391;-36
2023/01/27 08:37:10;;;;;;;10.60;6.13;;;3.00;99.90;;;;;;15200586;23;20473;-37
2023/01/27 08:43:15;;;;;;;7.63;4.95;;;3.00;99.90;;;;;;15200281;23;20084;-37
2023/01/27 08:49:17;;;;;;;12.02;4.68;;;3.00;99.90;;;;;;15196435;23;20381;-37
2023/01/27 08:55:19;;;;;;;12.27;5.78;;;2.90;99.90;;;;;;15194966;23;20045;-37
2023/01/27 09:01:20;;;;;;;9.27;5.32;;;2.90;99.90;;;;;;15190845;23;20096;-36
2023/01/27 09:07:22;;;;;;;7.93;4.63;;;3.00;99.90;;;;;;15201422;23;20022;-37
2023/01/27 09:13:24;;;;;;;7.63;3.95;;;3.00;99.90;;;;;;15197199;23;20033;-36
2023/01/27 09:19:26;;;;;;;4.75;3.10;;;2.90;99.90;;;;;;15195132;23;20132;-37
2023/01/27 09:25:28;;;;;;;4.80;3.25;;;2.80;99.90;;;;;;15168874;23;20018;-36
2023/01/27 09:31:31;;;;;;;4.43;2.33;;;2.80;99.90;;;;;;15201855;23;20046;-36
2023/01/27 09:37:55;;;;;;;3.58;2.05;;;2.80;99.90;;;;;;15198796;23;20025;-36
2023/01/27 09:44:12;;;;;;;4.82;1.92;;;2.70;99.90;;;;;;15198454;23;20022;-36
2023/01/27 09:50:23;;;;;;;5.53;1.80;;;2.70;99.90;;;;;;15174147;23;20061;-36
2023/01/27 09:56:37;;;;;;;4.72;1.80;;;2.70;99.90;;;;;;15198006;23;20053;-36
2023/01/27 10:02:58;;;;;;;3.33;1.75;;;2.70;99.90;;;;;;15197607;23;20026;-36
2023/01/27 10:09:22;;;;;;;4.10;1.75;;;2.80;99.90;;;;;;15203026;23;20022;-36
2023/01/27 10:15:38;;;;;;;3.05;1.67;;;2.80;99.90;;;;;;15195531;23;20109;-36
2023/01/27 10:22:15;;;;;;;4.63;1.48;;;2.90;99.90;;;;;;15204472;23;20029;-36
2023/01/27 10:28:22;;;;;;;3.08;1.50;;;2.90;99.90;;;;;;15191373;23;20024;-36
2023/01/27 10:34:47;;;;;;;4.10;1.65;;;2.80;99.90;;;;;;15197989;23;20410;-37
2023/01/27 10:41:14;;;;;;;4.00;1.75;;;2.80;99.90;;;;;;15202503;23;20044;-37
2023/01/27 10:47:37;;;;;;;4.53;1.88;;;2.80;99.90;;;;;;15201607;23;20022;-36
2023/01/27 10:53:50;;;;;;;4.35;1.90;;;2.80;99.90;;;;;;15201509;23;20026;-37
2023/01/27 10:59:58;;;;;;;4.78;2.10;;;2.80;99.90;;;;;;15202568;23;20022;-37
2023/01/27 11:06:27;;;;;;;5.07;1.83;;;2.80;99.90;;;;;;15201516;23;20536;-36
2023/01/27 11:12:34;;;;;;;2.90;1.60;;;2.80;99.90;;;;;;15197150;23;20354;-36
2023/01/27 11:18:37;;;;;;;3.72;2.03;;;2.90;99.90;;;;;;15196963;23;20022;-37
2023/01/27 11:25:24;;;;;;;5.22;2.08;;;2.80;99.90;;;;;;15195514;23;20037;-36
2023/01/27 11:32:02;;;;;;;5.35;2.22;;;2.90;99.90;;;;;;15166812;23;20018;-37
2023/01/27 11:38:18;;;;;;;4.10;1.88;;;2.90;99.90;;;;;;15199535;23;20112;-35
2023/01/27 11:44:28;;;;;;;4.10;1.95;;;2.90;99.90;;;;;;15192891;23;20118;-36
2023/01/27 11:50:33;;;;;;;3.92;2.00;;;3.10;99.90;;;;;;15197017;23;20452;-36
2023/01/27 11:56:36;;;;;;;3.35;1.85;;;3.10;99.90;;;;;;15199271;23;20022;-36
2023/01/27 12:02:48;;;;;;;4.50;1.88;;;3.10;99.90;;;;;;15168916;23;20116;-36
2023/01/27 12:08:50;;;;;;;4.32;1.92;;;3.10;99.90;;;;;;15201109;23;20469;-36
2023/01/27 12:15:03;;;;;;;3.72;1.98;;;3.20;99.90;;;;;;15192063;23;20037;-37
2023/01/27 12:21:07;;;;;;;4.35;1.88;;;3.10;99.90;;;;;;15198022;23;20097;-36
2023/01/27 12:27:20;;;;;;;3.28;2.05;;;3.00;99.90;;;;;;15197206;23;20471;-37
2023/01/27 12:33:27;;;;;;;4.38;1.42;;;3.10;99.90;;;;;;15196843;23;20093;-37
2023/01/27 12:39:38;;;;;;;3.72;2.00;;;3.30;99.90;;;;;;15200790;23;20053;-37
2023/01/27 12:45:42;;;;;;;8.02;2.15;;;3.30;99.90;;;;;;15198928;23;20332;-36
2023/01/27 12:51:52;;;;;;;4.90;1.90;;;3.30;99.90;;;;;;15194648;23;20025;-37
2023/01/27 12:57:54;;;;;;;4.90;1.95;;;3.20;99.90;;;;;;15200617;23;20028;-37
2023/01/27 13:04:09;;;;;;;3.63;2.17;;;3.20;99.90;;;;;;15163222;23;20355;-36
2023/01/27 13:10:19;;;;;;;2.70;2.00;;;3.10;99.90;;;;;;15201101;23;20399;-36
2023/01/27 13:16:27;;;;;;;2.50;1.90;;;3.10;99.90;;;;;;15152591;23;20475;-36
2023/01/27 13:22:40;;;;;;;4.97;1.65;;;3.00;99.90;;;;;;15199684;23;20347;-36
2023/01/27 13:29:13;;;;;;;5.22;1.70;;;2.90;99.90;;;;;;15195374;23;20030;-36
2023/01/27 13:35:31;;;;;;;3.05;1.70;;;2.90;99.90;;;;;;15198558;23;20329;-36
2023/01/27 13:41:58;;;;;;;3.95;1.60;;;3.00;99.90;;;;;;15169647;23;20422;-36
2023/01/27 13:48:14;;;;;;;5.13;1.42;;;2.90;99.90;;;;;;15194629;23;20053;-37
2023/01/27 13:54:16;;;;;;;2.35;1.42;;;2.90;99.90;;;;;;15176259;23;20021;-36
2023/01/27 14:00:24;;;;;;;6.07;1.40;;;2.90;99.90;;;;;;15202244;23;20471;-36
2023/01/27 14:07:20;;;;;;;5.45;1.17;;;2.80;99.90;;;;;;15204634;23;20026;-37
2023/01/27 14:13:35;;;;;;;3.38;1.58;;;2.80;99.90;;;;;;15075992;23;20033;-36
2023/01/27 14:19:49;;;;;;;4.75;1.90;;;2.80;99.90;;;;;;15201856;23;20018;-37
2023/01/27 14:26:12;;;;;;;6.28;2.00;;;2.80;99.90;;;;;;15194838;23;20029;-36
2023/01/27 14:32:31;;;;;;;3.90;2.13;;;2.80;99.90;;;;;;15195876;23;20674;-36
2023/01/27 14:38:54;;;;;;;3.90;1.05;;;2.80;99.90;;;;;;15203534;23;20347;-37
2023/01/27 14:45:10;;;;;;;3.83;1.15;;;2.80;99.90;;;;;;15195535;23;20080;-36
2023/01/27 14:51:49;;;;;;;3.17;1.60;;;2.70;99.90;;;;;;15197266;23;20093;-36
2023/01/27 14:57:55;;;;;;;5.03;2.00;;;2.80;99.90;;;;;;15036358;23;20022;-37
2023/01/27 15:04:34;;;;;;;5.80;1.80;;;2.70;99.90;;;;;;15198771;23;20085;-36
2023/01/27 15:10:47;;;;;;;3.58;1.60;;;2.60;99.90;;;;;;15202497;23;20033;-36
2023/01/27 15:17:10;;;;;;;7.63;2.20;;;2.50;99.90;;;;;;15201942;23;20467;-36
2023/01/27 15:23:37;;;;;;;4.05;1.52;;;2.50;99.90;;;;;;15202032;23;20089;-36
2023/01/27 15:29:39;;;;;;;3.90;1.00;;;2.50;99.90;;;;;;15197891;23;20022;-36
2023/01/27 15:35:41;;;;;;;5.97;1.15;;;2.40;99.90;;;;;;15170082;23;20404;-36
2023/01/27 15:42:01;;;;;;;3.75;1.20;;;2.40;99.90;;;;;;15178383;23;20093;-36
2023/01/27 15:48:16;;;;;;;1.80;0.95;;;2.30;99.90;;;;;;15204295;23;20018;-36
2023/01/27 15:54:27;;;;;;;6.57;1.63;;;2.30;99.90;;;;;;15197363;23;20478;-36
2023/01/27 16:00:48;;;;;;;2.22;0.95;;;2.30;99.90;;;;;;15199843;23;20057;-36
2023/01/27 16:07:00;;;;;;;2.75;1.63;;;2.30;99.90;;;;;;15201978;23;20119;-36
2023/01/27 16:13:24;;;;;;;2.13;1.02;;;2.40;99.90;;;;;;15197228;23;20026;-37
2023/01/27 16:19:33;;;;;;;3.97;1.05;;;2.30;99.90;;;;;;15192253;23;20227;-36
2023/01/27 16:25:45;;;;;;;4.05;1.00;;;2.30;99.90;;;;;;15175776;23;20058;-36
2023/01/27 16:31:53;;;;;;;2.50;1.08;;;2.20;99.90;;;;;;15202877;23;20029;-36
2023/01/27 16:38:40;;;;;;;2.35;0.90;;;2.20;99.90;;;;;;15201439;23;20100;-36
2023/01/27 16:44:50;;;;;;;4.13;0.90;;;2.20;99.90;;;;;;15193095;23;20057;-36
2023/01/27 16:50:54;;;;;;;2.30;1.10;;;2.20;99.90;;;;;;15194851;23;20077;-36
2023/01/27 16:56:56;;;;;;;2.00;1.00;;;2.20;99.90;;;;;;15197613;23;20053;-36
2023/01/27 17:03:11;;;;;;;3.53;0.93;;;2.20;99.90;;;;;;15196220;23;20463;-36
2023/01/27 17:09:30;;;;;;;3.05;1.10;;;2.10;99.90;;;;;;15202286;23;20022;-36
2023/01/27 17:15:37;;;;;;;5.45;1.60;;;2.10;99.90;;;;;;15194574;23;20029;-36
2023/01/27 17:22:18;;;;;;;6.15;2.92;;;2.10;99.90;;;;;;15204838;23;20026;-36
2023/01/27 17:28:25;;;;;;;4.10;2.00;;;2.00;99.90;;;;;;15185281;23;20026;-36
2023/01/27 17:34:27;;;;;;;3.17;1.88;;;2.00;99.90;;;;;;15206155;23;20030;-36
2023/01/27 17:40:37;;;;;;;3.80;1.92;;;1.90;99.90;;;;;;15207875;23;20026;-35
2023/01/27 17:46:40;;;;;;;6.00;1.88;;;1.90;99.90;;;;;;15204976;23;20061;-36
2023/01/27 17:52:43;;;;;;;5.30;1.90;;;1.90;99.90;;;;;;15198263;23;20018;-36
2023/01/27 17:59:14;;;;;;;2.40;1.40;;;1.80;99.90;;;;;;15182403;23;20021;-35
2023/01/27 18:05:31;;;;;;;4.60;1.77;;;1.80;99.90;;;;;;15203316;23;20072;-36
2023/01/27 18:11:35;;;;;;;3.53;1.70;;;1.80;99.90;;;;;;15203129;23;20517;-36
2023/01/27 18:17:37;;;;;;;3.15;1.48;;;1.80;99.90;;;;;;15202848;23;20096;-36
2023/01/27 18:23:44;;;;;;;2.80;1.40;;;1.80;99.90;;;;;;15202696;23;20021;-36
2023/01/27 18:29:50;;;;;;;3.17;1.40;;;1.80;99.90;;;;;;15201188;23;20384;-36
2023/01/27 18:35:59;;;;;;;4.65;1.42;;;1.80;99.90;;;;;;15201589;23;20371;-37
2023/01/27 18:42:02;;;;;;;3.97;2.10;;;1.80;99.90;;;;;;15198735;23;20061;-36
2023/01/27 18:48:13;;;;;;;8.32;2.40;;;1.80;99.90;;;;;;15197239;23;20503;-37
2023/01/27 18:54:15;;;;;;;4.07;2.20;;;1.80;99.90;;;;;;15196283;23;20463;-37
2023/01/27 19:00:20;;;;;;;5.65;2.00;;;1.80;99.90;;;;;;15204043;23;20441;-36
2023/01/27 19:06:22;;;;;;;5.32;2.40;;;1.80;99.90;;;;;;15199269;23;20029;-36
2023/01/27 19:12:24;;;;;;;5.28;2.65;;;1.80;99.90;;;;;;15201332;23;20133;-36
2023/01/27 19:18:35;;;;;;;6.30;2.70;;;1.70;99.90;;;;;;15203340;23;20109;-36
2023/01/27 19:24:37;;;;;;;5.78;2.50;;;1.70;99.90;;;;;;15200988;23;20049;-36
2023/01/27 19:30:39;;;;;;;5.93;2.72;;;1.70;99.90;;;;;;15201797;23;20029;-36
2023/01/27 19:36:44;;;;;;;5.38;2.45;;;1.70;99.90;;;;;;15176791;23;20018;-36
2023/01/27 19:42:47;;;;;;;4.93;2.33;;;1.60;99.90;;;;;;15199084;23;20022;-36
2023/01/27 19:48:49;;;;;;;4.85;2.60;;;1.60;99.90;;;;;;15203812;23;20081;-37
2023/01/27 19:54:51;;;;;;;4.30;2.53;;;1.70;99.90;;;;;;15200013;23;20029;-37
2023/01/27 20:00:54;;;;;;;4.40;2.40;;;1.60;99.90;;;;;;15201903;23;20032;-36
2023/01/27 20:06:56;;;;;;;4.90;2.80;;;1.60;99.90;;;;;;15202848;23;20088;-36
2023/01/27 20:13:02;;;;;;;5.65;2.70;;;1.50;99.90;;;;;;15174250;23;20027;-36
2023/01/27 20:19:04;;;;;;;5.65;2.55;;;1.50;99.90;;;;;;15196074;23;20018;-36
2023/01/27 20:25:06;;;;;;;6.00;2.83;;;1.50;99.90;;;;;;15201241;23;20364;-36
2023/01/27 20:31:12;;;;;;;6.70;2.97;;;1.50;99.90;;;;;;15170724;23;20029;-37
2023/01/27 20:37:16;;;;;;;3.83;2.55;;;1.50;99.90;;;;;;15172895;23;20029;-36
2023/01/27 20:43:17;;;;;;;4.10;2.40;;;1.40;99.90;;;;;;15197941;23;20025;-36
2023/01/27 20:49:35;;;;;;;3.35;2.20;;;1.40;99.90;;;;;;15201059;23;20173;-37
2023/01/27 20:55:37;;;;;;;6.22;1.77;;;1.30;99.90;;;;;;15174852;23;20122;-36
2023/01/27 21:01:39;;;;;;;4.90;2.35;;;1.30;99.90;;;;;;15199213;23;20163;-37
2023/01/27 21:07:41;;;;;;;4.43;1.75;;;1.30;99.90;;;;;;15199055;23;20034;-37
2023/01/27 21:13:43;;;;;;;5.45;1.50;;;1.20;99.90;;;;;;15198077;23;20080;-36
2023/01/27 21:19:45;;;;;;;3.83;1.20;;;1.10;99.90;;;;;;15199106;23;20026;-37
2023/01/27 21:25:48;;;;;;;3.95;1.23;;;1.00;99.90;;;;;;15200505;23;20069;-36
2023/01/27 21:31:50;;;;;;;3.03;1.20;;;1.00;99.90;;;;;;15198452;23;20362;-36
2023/01/27 21:37:52;;;;;;;2.13;1.05;;;0.90;99.90;;;;;;15201336;23;20391;-37
2023/01/27 21:50:16;;;;;;;6.18;1.70;;;1.00;99.90;;;;;;15196131;23;20077;-37
2023/01/27 21:56:18;;;;;;;5.05;1.92;;;0.90;99.90;;;;;;15197285;23;20485;-37
2023/01/27 22:02:20;;;;;;;3.58;1.77;;;0.80;99.90;;;;;;15200045;23;20080;-37
2023/01/27 22:08:22;;;;;;;4.13;2.22;;;0.80;99.90;;;;;;15204743;23;20156;-37
2023/01/27 22:14:24;;;;;;;5.80;2.05;;;0.80;99.90;;;;;;15202634;23;20105;-36
2023/01/27 22:20:27;;;;;;;4.63;1.70;;;0.80;99.90;;;;;;15204650;23;20488;-36
2023/01/27 22:26:29;;;;;;;7.03;2.42;;;0.90;99.90;;;;;;15204901;23;20025;-36
2023/01/27 22:32:31;;;;;;;4.75;2.50;;;0.90;99.90;;;;;;15174037;23;20032;-36
2023/01/27 22:38:37;;;;;;;4.75;2.13;;;0.90;99.90;;;;;;15204902;23;20033;-37
2023/01/27 22:44:39;;;;;;;5.00;2.40;;;0.80;99.90;;;;;;15200861;23;20036;-36
2023/01/27 22:50:41;;;;;;;6.38;2.40;;;0.80;99.90;;;;;;15199854;23;20029;-35
2023/01/27 22:56:43;;;;;;;3.38;2.53;;;0.90;99.90;;;;;;15202715;23;20109;-36
2023/01/27 23:02:45;;;;;;;5.07;2.50;;;0.90;99.90;;;;;;15202200;23;20367;-36
2023/01/27 23:08:47;;;;;;;4.65;1.90;;;0.80;99.90;;;;;;15202920;23;20021;-37
2023/01/27 23:14:49;;;;;;;4.30;2.30;;;0.80;99.90;;;;;;15203357;23;20575;-37
2023/01/27 23:20:51;;;;;;;4.15;2.50;;;0.90;99.90;;;;;;15198855;23;20627;-37
2023/01/27 23:26:53;;;;;;;4.80;2.13;;;0.90;99.90;;;;;;15175749;23;20033;-37
2023/01/27 23:32:56;;;;;;;4.93;2.30;;;0.70;99.90;;;;;;15201129;23;20170;-36
2023/01/27 23:38:57;;;;;;;3.78;2.10;;;0.70;99.90;;;;;;15202990;23;20414;-36
2023/01/27 23:44:59;;;;;;;3.88;2.30;;;0.80;99.90;;;;;;15199857;23;20106;-37
2023/01/27 23:51:06;;;;;;;4.25;2.42;;;0.80;99.90;;;;;;15197066;23;20463;-36
2023/01/27 23:57:08;;;;;;;3.70;2.80;;;0.80;99.90;;;;;;15198966;23;20061;-36
